Latest Coastal Weather Observations for East Sale

IDV60701

Issued at 10:25 pm EST Thursday 17 April 2014 (issued every 10 minutes, with the page automatically refreshed every 10 minutes)

About coastal observations | Map of coastal stations | Coastal observations for VIC | Marine services | Other Formats
Station Details ID: 085072 Name: EAST SALE AIRPORT Lat: -38.12 Lon: 147.13 Height: 4.6 m
Data from the previous 72 hours. | See also: Recent months at East Sale
Date/Time
EST
Temp

°C
Wind Pressure Rain
since 9am
mm
Weather Cloud Vis
km
Sea
Height
m
Swell
Dir
 
Speed
knots
Gust
knots
hPa Trend Height
m
Period
s
Dir
17/10:00pm 12.2 E 3 3 1019.0 - 0.0 - - 10 - - - -
17/09:30pm 12.7 ESE 6 6 1019.0 - 0.0 - - 10 - - - -
17/09:00pm 12.6 E 5 5 1019.1 - 0.0 - - 10 - - - -
17/08:30pm 12.6 E 4 5 1019.2 - 0.0 - - 10 - - - -
17/08:00pm 13.3 ENE 4 5 1019.3 - 0.0 - - 10 - - - -
17/07:30pm 13.9 ENE 4 6 1019.1 - 0.0 - - 10 - - - -
17/07:00pm 13.8 ENE 5 6 1019.1 - 0.0 - - 10 - - - -
17/06:30pm 14.4 E 5 7 1019.0 - 0.0 - - 10 - - - -
17/06:00pm 15.3 ENE 6 7 1019.0 - 0.0 - - 10 - - - -
17/05:30pm 16.7 ENE 8 9 1018.8 - 0.0 - - 10 - - - -
17/05:00pm 18.6 E 9 11 1018.6 - 0.0 - - 10 - - - -
17/04:30pm 19.8 E 9 10 1018.5 - 0.0 - - 10 - - - -
17/04:00pm 20.5 ENE 7 8 1018.7 - 0.0 - - 10 - - - -
17/03:30pm 20.9 ESE 6 8 1019.1 - 0.0 - - 10 - - - -
17/03:00pm 21.9 N 3 6 1019.2 F 0.0 Fine Mostly clear 30 - - - -
17/02:30pm 20.8 NE 3 5 1019.3 - 0.0 - Mostly clear 10 - - - -
17/02:00pm 21.1 NNE 3 5 1019.6 - 0.0 - Mostly clear 10 - - - -
17/01:30pm 21.2 NW 4 7 1019.8 - 0.0 - Mostly clear 10 - - - -
17/01:00pm 20.0 NNW 3 7 1020.1 - 0.0 - Mostly clear 10 - - - -
17/12:30pm 19.7 WNW 4 6 1020.6 - 0.0 - Mostly clear 10 - - - -
17/12:00pm 19.3 N 4 5 1020.9 - 0.0 - Mostly clear 10 - - - -
17/11:30am 18.6 NW 4 6 1021.4 - 0.0 - Mostly clear 10 - - - -
17/11:00am 18.1 NNW 5 8 1021.6 - 0.0 - Mostly clear 10 - - - -
17/10:30am 16.8 NW 5 7 1021.7 - 0.0 - - 10 - - - -
17/10:00am 15.5 WNW 5 7 1021.8 - 0.0 - - 10 - - - -
17/09:30am 14.1 WNW 5 7 1022.0 - 0.0 - - 10 - - - -
17/09:00am 12.9 WNW 4 6 1022.1 R 0.0 Distant fog Mostly clear 15 - - - -
17/08:30am 10.6 WNW 6 7 1022.0 - 0.0 - Partly cloudy 10 - - - -
17/08:00am 9.8 NNW 4 5 1022.0 - 0.0 - - 10 - - - -
17/07:39am 8.7 CALM 0 0 1021.8 - 0.0 - Partly cloudy 10 - - - -
17/07:37am 8.4 CALM 0 0 1021.7 - 0.0 - Partly cloudy 10 - - - -
17/07:36am 8.4 CALM 0 0 1021.7 - 0.0 - Partly cloudy 10 - - - -
17/07:30am 7.8 CALM 0 0 1021.7 - 0.0 Mist Partly cloudy 4 - - - -
17/07:18am 7.1 CALM 0 0 1021.5 - 0.0 - Partly cloudy 4 - - - -
17/07:16am 6.8 CALM 0 1 1021.5 - 0.0 Mist Partly cloudy 2 - - - -
17/07:15am 6.8 CALM 0 1 1021.5 - 0.0 - Partly cloudy 10 - - - -
17/07:10am 6.6 NNW 1 3 1021.4 - 0.0 - Partly cloudy 10 - - - -
17/07:07am 6.5 NNW 2 4 1021.3 - 0.0 - Partly cloudy 9 - - - -
17/07:01am 6.8 NW 3 4 1021.2 - 0.0 - Partly cloudy 2 - - - -
17/07:00am 6.9 NW 3 4 1021.1 - 0.0 Mist Partly cloudy 2 - - - -
17/06:57am 6.8 NW 3 4 1021.1 - 0.0 - Partly cloudy 2 - - - -
17/06:54am 6.8 NW 3 4 1021.1 - 0.0 - Partly cloudy 6 - - - -
17/06:53am 6.8 NW 3 4 1021.1 - 0.0 - Partly cloudy 6 - - - -
17/06:51am 6.7 NW 3 4 1021.0 - 0.0 - Partly cloudy 10 - - - -
17/06:30am 6.5 NW 6 6 1020.7 - 0.0 - - 5 - - - -
17/06:29am 6.5 NW 6 6 1020.7 - 0.0 - - 5 - - - -
17/06:28am 6.5 NW 6 6 1020.7 - 0.0 - - 8 - - - -
17/06:27am 6.5 NW 6 6 1020.7 - 0.0 - - 8 - - - -
17/06:00am 6.4 NW 3 4 1020.6 - 0.0 - - 3 - - - -
17/05:56am 6.6 NW 3 4 1020.6 - 0.0 - - 6 - - - -
17/05:55am 6.6 NW 3 4 1020.6 - 0.0 - - 6 - - - -
17/05:30am 7.5 NW 4 6 1020.6 - 0.0 - - 10 - - - -
17/05:00am 7.3 WNW 7 8 1020.4 - 0.0 - - 10 - - - -
17/04:50am 7.0 WNW 6 7 1020.4 - 0.0 - - 10 - - - -
17/04:49am 7.0 WNW 6 7 1020.4 - 0.0 - - 10 - - - -
17/04:34am 7.2 WNW 6 7 1020.3 - 0.0 - - 6 - - - -
17/04:33am 7.2 WNW 6 7 1020.3 - 0.0 - - 6 - - - -
17/04:31am 7.1 W 6 7 1020.3 - 0.0 - - 10 - - - -
17/04:30am 7.0 W 6 7 1020.4 - 0.0 - - 10 - - - -
17/04:24am 7.1 W 5 6 1020.4 - 0.0 - Partly cloudy 10 - - - -
17/04:23am 7.1 W 5 6 1020.4 - 0.0 - Partly cloudy 10 - - - -
17/04:04am 7.3 WNW 5 7 1020.1 - 0.0 - Partly cloudy 0.5 - - - -
17/04:00am 7.2 WNW 6 7 1020.1 - 0.0 - Cloudy 0.3 - - - -
17/03:47am 7.1 WNW 6 6 1020.1 - 0.0 - Cloudy 0.6 - - - -
17/03:33am 7.5 NNW 4 5 1020.0 - 0.0 - Partly cloudy 0.6 - - - -
17/03:30am 7.4 NNW 3 5 1019.9 - 0.0 - Partly cloudy 0.8 - - - -
17/03:29am 7.4 NNW 3 5 1019.9 - 0.0 - Partly cloudy 0.8 - - - -
17/03:26am 7.1 NNW 3 4 1019.9 - 0.0 - Partly cloudy 0.9 - - - -
17/03:18am 7.9 NW 3 4 1019.8 - 0.0 - Partly cloudy 5 - - - -
17/03:17am 7.9 NW 3 4 1019.8 - 0.0 - Partly cloudy 5 - - - -
17/03:00am 7.9 NW 4 6 1020.0 - 0.0 - Mostly clear 10 - - - -
17/02:30am 8.1 SSW 1 5 1020.1 - 0.0 - - 10 - - - -
17/02:00am 8.3 CALM 0 0 1020.2 - 0.0 - Partly cloudy 10 - - - -
17/01:31am 8.8 S 1 3 1020.3 - 0.0 - Partly cloudy 10 - - - -
17/01:30am 8.8 S 2 4 1020.3 - 0.0 - Partly cloudy 10 - - - -
17/01:07am 8.6 CALM 0 0 1020.5 - 0.0 - - 10 - - - -
17/01:06am 8.6 CALM 0 0 1020.5 - 0.0 - - 10 - - - -
17/01:00am 9.0 CALM 0 3 1020.4 - 0.0 - - 10 - - - -
17/12:47am 8.9 SW 3 4 1020.5 - 0.0 - - 5 - - - -
17/12:46am 8.9 SW 3 4 1020.5 - 0.0 - - 5 - - - -
17/12:30am 8.9 WSW 3 4 1020.5 - 0.0 - - 10 - - - -
17/12:00am 9.2 WSW 3 4 1020.7 - 0.0 - - 10 - - - -
 
Date/Time
EST
Temp

°C
Wind Pressure Rain
since 9am
mm
Weather Cloud Vis
km
Sea
Height
m
Swell
Dir
 
Speed
knots
Gust
knots
hPa Trend Height
m
Period
s
Dir
16/11:30pm 10.0 CALM 0 0 1020.8 - 0.0 - - 10 - - - -
16/11:00pm 9.9 CALM 0 0 1020.9 - 0.0 - - 10 - - - -
16/10:30pm 10.2 CALM 0 0 1021.1 - 0.0 - Partly cloudy 10 - - - -
16/10:00pm 10.1 CALM 0 0 1021.2 - 0.0 - Partly cloudy 10 - - - -
16/09:30pm 10.6 W 2 3 1021.5 - 0.0 - Partly cloudy 10 - - - -
16/09:00pm 10.9 CALM 0 0 1021.3 - 0.0 - Mostly clear 10 - - - -
16/08:30pm 11.1 CALM 0 0 1021.1 - 0.0 - - 10 - - - -
16/08:00pm 12.0 E 3 4 1020.7 - 0.0 - - 10 - - - -
16/07:30pm 12.6 ESE 4 5 1020.6 - 0.0 - - 10 - - - -
16/07:00pm 12.8 ESE 5 6 1020.6 - 0.0 - - 10 - - - -
16/06:30pm 13.1 ESE 7 8 1020.3 - 0.0 - - 10 - - - -
16/06:00pm 13.6 ESE 7 8 1020.0 - 0.0 - - 10 - - - -
16/05:30pm 15.2 E 7 8 1019.8 - 0.0 - Partly cloudy 10 - - - -
16/05:00pm 16.8 E 10 12 1019.5 - 0.0 - - 10 - - - -
16/04:30pm 17.8 E 10 12 1019.3 - 0.0 - Mostly clear 10 - - - -
16/04:00pm 18.3 E 9 11 1019.4 - 0.0 - Mostly clear 10 - - - -
16/03:30pm 18.4 E 9 13 1019.4 - 0.0 - Mostly clear 10 - - - -
16/03:00pm 18.2 E 11 13 1019.4 F 0.0 Fine Partly cloudy 30 - - - -
16/02:30pm 18.8 E 10 12 1019.5 - 0.0 - Mostly clear 10 - - - -
16/02:00pm 18.9 E 11 14 1019.5 - 0.0 - Mostly clear 10 - - - -
16/01:30pm 18.5 E 9 13 1019.6 - 0.0 - Mostly clear 10 - - - -
16/01:00pm 18.8 ENE 8 12 1020.0 - 0.0 - Mostly clear 10 - - - -
16/12:30pm 18.1 E 8 12 1020.5 - 0.0 - Mostly clear 10 - - - -
16/12:00pm 17.9 E 7 10 1021.0 - 0.0 - Mostly clear 10 - - - -
16/11:30am 17.5 E 9 12 1021.3 - 0.0 - Mostly clear 10 - - - -
16/11:00am 16.5 SE 6 9 1021.5 - 0.0 - Mostly clear 10 - - - -
16/10:30am 16.1 E 3 6 1021.9 - 0.0 - Mostly clear 10 - - - -
16/10:00am 14.4 NNW 2 4 1022.1 - 0.0 - Mostly clear 10 - - - -
16/09:30am 13.5 W 1 3 1022.4 - 0.0 - - 10 - - - -
16/09:00am 11.6 WNW 3 4 1022.7 F 1.0 Distant fog Mostly clear 15 - - - -
16/08:31am 10.5 W 3 5 1022.9 - 1.0 - Partly cloudy 10 - - - -
16/08:30am 10.4 W 3 5 1022.8 - 1.0 - Partly cloudy 10 - - - -
16/08:27am 10.3 W 3 5 1022.8 - 1.0 - Partly cloudy 10 - - - -
16/08:00am 9.5 CALM 0 0 1022.7 - 1.0 Fog Mostly cloudy 0.3 - - - -
16/07:45am 9.4 CALM 0 0 1022.8 - 1.0 - Cloudy 0.6 - - - -
16/07:42am 9.4 CALM 0 0 1022.7 - 1.0 - Cloudy 0.6 - - - -
16/07:30am 8.9 SW 1 3 1022.6 - 1.0 Fog Cloudy 0.5 - - - -
16/07:00am 6.6 NW 3 4 1022.4 - 1.0 Fog Cloudy 0.1 - - - -
16/06:30am 7.1 NW 4 5 1022.3 - 1.0 - Cloudy 0.3 - - - -
16/06:06am 6.9 NW 5 7 1022.4 - 0.8 - Cloudy 0.9 - - - -
16/06:00am 6.7 NW 4 4 1022.3 - 0.8 - Mostly cloudy 1 - - - -
16/05:39am 6.8 WNW 2 4 1022.2 - 0.8 - Partly cloudy 0.5 - - - -
16/05:38am 6.8 NNW 2 4 1022.2 - 0.8 - Partly cloudy 0.5 - - - -
16/05:30am 7.0 CALM 0 0 1022.1 - 0.8 - Partly cloudy 2 - - - -
16/05:01am 7.5 CALM 0 0 1022.0 - 0.8 - Partly cloudy 1 - - - -
16/05:00am 7.5 CALM 0 0 1022.0 - 0.8 - Partly cloudy 1 - - - -
16/04:39am 7.3 CALM 0 0 1022.0 - 0.8 - Partly cloudy 0.3 - - - -
16/04:38am 7.4 CALM 0 0 1022.0 - 0.8 - Partly cloudy 0.3 - - - -
16/04:37am 7.5 CALM 0 0 1022.0 - 0.8 - Partly cloudy - - - - -
16/04:30am 7.6 CALM 0 0 1022.0 - 0.8 - Partly cloudy - - - - -
16/04:00am 8.2 CALM 0 0 1022.1 - 0.8 - Partly cloudy 0.7 - - - -
16/03:51am 8.1 CALM 0 0 1022.1 - 0.8 - Partly cloudy 0.8 - - - -
16/03:48am 8.2 CALM 0 0 1022.0 - 0.8 - Partly cloudy 0.7 - - - -
16/03:47am 8.2 CALM 0 0 1022.0 - 0.8 - Partly cloudy 0.7 - - - -
16/03:35am 8.4 CALM 0 0 1021.9 - 0.8 - Partly cloudy 0.2 - - - -
16/03:34am 8.4 CALM 0 0 1021.9 - 0.8 - Partly cloudy 0.2 - - - -
16/03:30am 8.4 CALM 0 0 1022.0 - 0.8 - Partly cloudy 0.3 - - - -
16/03:00am 8.6 SW 2 3 1022.2 - 0.8 - - 0.4 - - - -
16/02:39am 9.1 SW 3 3 1022.4 - 0.8 - Partly cloudy 0.2 - - - -
16/02:38am 9.1 SW 3 3 1022.4 - 0.8 - Partly cloudy 0.2 - - - -
16/02:30am 9.0 SSW 4 5 1022.5 - 0.8 - Partly cloudy 0.3 - - - -
16/02:10am 9.6 SSW 1 5 1022.9 - 0.8 - Cloudy 0.1 - - - -
16/02:00am 9.9 CALM 0 0 1023.0 - 0.8 - Cloudy 0.2 - - - -
16/01:56am 9.9 CALM 0 0 1023.0 - 0.8 - Cloudy 0.2 - - - -
16/01:46am 9.9 CALM 0 0 1023.0 - 0.8 - Cloudy 0.2 - - - -
16/01:42am 9.8 CALM 0 0 1023.0 - 0.8 - Partly cloudy 0.1 - - - -
16/01:30am 9.8 CALM 0 0 1023.2 - 0.8 - Cloudy 0.2 - - - -
16/01:27am 9.8 CALM 0 0 1023.2 - 0.8 - Cloudy 0.2 - - - -
16/01:26am 9.9 CALM 0 0 1023.2 - 0.8 - Partly cloudy 0.3 - - - -
16/01:06am 10.4 CALM 0 0 1023.3 - 0.8 - Cloudy 0.1 - - - -
16/01:05am 10.5 CALM 0 0 1023.3 - 0.8 - Cloudy 0.1 - - - -
16/01:00am 10.4 CALM 0 0 1023.3 - 0.8 - Cloudy 0.2 - - - -
16/12:35am 11.1 CALM 0 0 1023.3 - 0.8 - Cloudy 0.1 - - - -
16/12:30am 11.2 CALM 0 0 1023.4 - 0.8 - Cloudy 0.2 - - - -
16/12:24am 11.5 CALM 0 3 1023.4 - 0.8 - Partly cloudy 0.1 - - - -
16/12:14am 11.8 SSW 3 4 1023.6 - 0.8 - Partly cloudy 0.1 - - - -
16/12:13am 11.8 SSW 3 4 1023.6 - 0.8 - Partly cloudy 0.1 - - - -
16/12:09am 11.8 SSW 3 4 1023.7 - 0.8 - Partly cloudy 0.2 - - - -
16/12:01am 12.2 SSW 4 4 1023.8 - 0.8 - Partly cloudy 5 - - - -
16/12:00am 12.3 SSW 4 4 1023.8 - 0.8 - Partly cloudy 7 - - - -
 
Date/Time
EST
Temp

°C
Wind Pressure Rain
since 9am
mm
Weather Cloud Vis
km
Sea
Height
m
Swell
Dir
 
Speed
knots
Gust
knots
hPa Trend Height
m
Period
s
Dir
15/11:30pm 13.1 SW 3 4 1024.2 - 0.8 - Partly cloudy 10 - - - -
15/11:00pm 13.4 NNW 2 3 1024.4 - 0.8 - Partly cloudy 10 - - - -
15/10:30pm 13.7 NNW 3 3 1024.5 - 0.8 - Cloudy 10 - - - -
15/10:00pm 13.9 CALM 0 0 1024.6 - 0.8 - Cloudy 10 - - - -
15/09:30pm 13.8 CALM 0 0 1024.7 - 0.8 - Cloudy 10 - - - -
15/09:01pm 13.9 CALM 0 0 1024.8 - 0.8 - Cloudy 10 - - - -
15/09:00pm 13.9 CALM 0 0 1024.8 - 0.8 - Cloudy 10 - - - -
15/08:30pm 14.1 CALM 0 0 1024.5 - 0.8 - Partly cloudy 10 - - - -
15/08:00pm 14.3 CALM 0 0 1024.4 - 0.8 - Partly cloudy 10 - - - -
15/07:30pm 14.4 CALM 0 2 1024.4 - 0.8 - Partly cloudy 10 - - - -
15/07:00pm 14.5 N 3 3 1024.2 - 0.8 - Partly cloudy 10 - - - -
15/06:30pm 14.6 ENE 4 5 1023.9 - 0.8 - Partly cloudy 10 - - - -
15/06:01pm 14.6 E 5 5 1023.7 - 0.8 - Partly cloudy 10 - - - -
15/06:00pm 14.5 E 5 5 1023.7 - 0.8 - Cloudy 10 - - - -
15/05:30pm 14.8 NNE 5 6 1023.5 - 0.8 - Partly cloudy 10 - - - -
15/05:00pm 14.8 ENE 7 8 1023.4 - 0.8 - Partly cloudy 10 - - - -
15/04:30pm 15.0 ENE 9 11 1023.5 - 0.8 - Partly cloudy 10 - - - -
15/04:00pm 16.7 ENE 7 8 1023.3 - 0.6 - Partly cloudy 10 - - - -
15/03:30pm 16.9 NE 8 11 1023.3 - 0.6 - Partly cloudy 10 - - - -
15/03:01pm 16.8 NE 9 11 1023.3 - 0.6 - Cloudy 10 - - - -
15/03:00pm 16.8 NE 8 11 1023.3 R 0.6 Fine Mostly cloudy 25 - - - -
15/02:30pm 16.9 ENE 9 10 1023.3 - 0.6 - Mostly cloudy 10 - - - -
15/02:00pm 16.1 ESE 9 11 1023.3 - 0.6 - Partly cloudy 10 - - - -
15/01:30pm 15.0 SE 5 8 1023.6 - 0.6 - Mostly cloudy 10 - - - -
15/01:00pm 14.7 SE 11 14 1023.8 - 0.6 Showers Partly cloudy 6 - - - -
15/12:30pm 16.8 ESE 7 10 1023.9 - 0.6 - Partly cloudy 10 - - - -
15/12:01pm 16.6 SE 5 8 1024.1 - 0.6 - Partly cloudy 10 - - - -
15/12:00pm 16.6 SE 5 8 1024.2 - 0.6 - Cloudy 10 - - - -
15/11:30am 16.9 WNW 4 6 1024.5 - 0.6 - Partly cloudy 10 - - - -
15/11:00am 15.1 W 5 6 1024.7 - 0.6 - Cloudy 10 - - - -
15/10:30am 14.4 NW 3 5 1024.7 - 0.6 - Partly cloudy 10 - - - -
15/10:00am 14.4 WNW 7 9 1024.8 - 0.0 Showers Mostly clear 10 - - - -
15/09:30am 14.2 WNW 6 8 1024.9 - 0.0 - Mostly clear 10 - - - -
15/09:07am 13.0 W 6 8 1025.0 - 0.0 - Cloudy 10 - - - -
15/09:00am 12.7 WNW 7 8 1025.0 R 0.0 Fine Partly cloudy 30 - - - -
15/08:30am 11.7 WNW 7 8 1024.9 - 0.0 - Mostly clear 10 - - - -
15/08:00am 10.3 WNW 7 9 1024.7 - 0.0 - Partly cloudy 10 - - - -
15/07:30am 9.4 WNW 7 9 1024.3 - 0.0 - Cloudy 10 - - - -
15/07:00am 8.5 W 5 7 1024.3 - 0.0 - Partly cloudy 10 - - - -
15/06:30am 8.2 W 6 7 1024.1 - 0.0 - Cloudy 10 - - - -
15/06:01am 7.7 WNW 7 7 1023.9 - 0.0 - Partly cloudy 10 - - - -
15/06:00am 7.6 WNW 7 7 1023.9 - 0.0 - Mostly cloudy 10 - - - -
15/05:30am 7.6 WNW 6 7 1023.9 - 0.0 - Partly cloudy 10 - - - -
15/05:00am 8.3 NW 7 8 1023.6 - 0.0 - Partly cloudy 10 - - - -
15/04:30am 8.5 W 5 6 1023.6 - 0.0 - Partly cloudy 10 - - - -
15/04:00am 9.1 WNW 7 7 1023.5 - 0.0 - Cloudy 10 - - - -
15/03:30am 9.0 W 5 6 1023.4 - 0.0 - Cloudy 10 - - - -
15/03:01am 9.2 NW 5 5 1023.6 - 0.0 - Cloudy 10 - - - -
15/03:00am 9.2 NW 5 5 1023.6 - 0.0 - Mostly cloudy 10 - - - -
15/02:30am 8.9 NNW 5 6 1023.8 - 0.0 - Cloudy 10 - - - -
15/02:00am 8.3 SW 3 3 1023.9 - 0.0 - Cloudy 10 - - - -
15/01:30am 8.0 SSW 5 5 1024.0 - 0.0 - Partly cloudy 10 - - - -
15/01:20am 8.0 SW 5 6 1024.1 - 0.0 - Partly cloudy 10 - - - -
15/01:00am 7.4 WNW 8 9 1023.9 - 0.0 - Partly cloudy 10 - - - -
15/12:30am 8.2 WNW 7 8 1023.9 - 0.0 - - 10 - - - -
15/12:00am 8.9 NW 5 6 1024.0 - 0.0 - - 10 - - - -
 
Date/Time
EST
Temp

°C
Wind Pressure Rain
since 9am
mm
Weather Cloud Vis
km
Sea
Height
m
Swell
Dir
 
Speed
knots
Gust
knots
hPa Trend Height
m
Period
s
Dir
14/11:30pm 8.4 WNW 4 5 1024.0 - 0.0 - - 10 - - - -
14/11:00pm 9.1 WNW 5 5 1024.2 - 0.0 - - 10 - - - -
14/10:30pm 8.6 WNW 4 5 1024.4 - 0.0 - - 10 - - - -

Other Formats:

Comma delimited format used in spreadsheet applications
http://www.bom.gov.au/fwo/IDV60701/IDV60701.94907.axf

JavaScript Object Notation format (JSON) in row-major order
http://www.bom.gov.au/fwo/IDV60701/IDV60701.94907.json